Time;durP1;ratioP1;P1;durP2;ratioP2;P2;SDS_P1;SDS_P2;PMS_P1;PMS_P2;Temp;Humidity;BMP_temperature;BMP_pressure;BME280_temperature;BME280_humidity;BME280_pressure;Samples;Min_cycle;Max_cycle;Signal;HPM_P1;HPM_P2
2022/12/13 00:02:26;;;;;;;9.20;5.10;;;-3.30;99.90;;;;;;5139003;28;20045;-62
2022/12/13 00:05:03;;;;;;;7.82;4.70;;;-3.30;99.90;;;;;;5130428;28;20059;-60
2022/12/13 00:07:35;;;;;;;8.47;5.33;;;-3.30;99.90;;;;;;5155013;28;20084;-60
2022/12/13 00:10:10;;;;;;;7.80;5.17;;;-3.30;99.90;;;;;;5148384;28;20055;-59
2022/12/13 00:12:42;;;;;;;12.07;4.87;;;-3.40;99.90;;;;;;5145455;28;20106;-62
2022/12/13 00:15:16;;;;;;;7.83;4.53;;;-3.40;99.90;;;;;;5157422;28;20044;-59
2022/12/13 00:17:53;;;;;;;;;;;-3.60;99.90;;;;;;5157475;28;20036;-60
2022/12/13 00:20:32;;;;;;;12.90;3.17;;;-3.60;99.90;;;;;;5136918;28;19918;-60
2022/12/13 00:23:06;;;;;;;6.30;3.73;;;-3.50;99.90;;;;;;5137781;28;20027;-60
2022/12/13 00:25:40;;;;;;;10.80;4.43;;;-3.70;99.90;;;;;;5154515;28;20040;-60
2022/12/13 00:28:12;;;;;;;8.45;4.82;;;-3.70;99.90;;;;;;5153119;28;20216;-61
2022/12/13 00:30:48;;;;;;;9.37;5.60;;;-3.70;99.90;;;;;;5137079;28;20238;-61
2022/12/13 00:33:20;;;;;;;10.97;5.33;;;-3.70;99.90;;;;;;5153945;28;20027;-62
2022/12/13 00:35:53;;;;;;;12.63;4.77;;;-3.60;99.90;;;;;;5137385;28;20038;-61
2022/12/13 00:38:27;;;;;;;9.80;5.30;;;-3.60;99.90;;;;;;5152315;28;20218;-61
2022/12/13 00:41:42;;;;;;;13.57;5.22;;;-3.80;99.90;;;;;;5135289;28;20283;-60
2022/12/13 00:44:13;;;;;;;;;;;-3.80;99.90;;;;;;5155863;28;20038;-60
2022/12/13 00:46:50;;;;;;;5.50;3.27;;;-3.90;99.90;;;;;;5156075;28;19978;-60
2022/12/13 00:49:27;;;;;;;7.77;4.43;;;-3.90;99.90;;;;;;5154579;28;20231;-61
2022/12/13 00:52:03;;;;;;;6.57;3.83;;;-4.00;99.90;;;;;;5135351;28;20043;-60
2022/12/13 00:54:45;;;;;;;8.13;5.10;;;-4.00;99.90;;;;;;5152935;28;20027;-61
2022/12/13 00:57:27;;;;;;;8.77;5.63;;;-4.00;99.90;;;;;;5143448;28;20041;-62
2022/12/13 01:00:04;;;;;;;14.00;5.40;;;-3.90;99.90;;;;;;5155593;28;20054;-60
2022/12/13 01:02:42;;;;;;;12.93;5.60;;;-3.90;99.90;;;;;;5187026;23;20358;-60
2022/12/13 01:05:18;;;;;;;8.33;5.37;;;-4.00;99.90;;;;;;5143437;28;20057;-60
2022/12/13 01:07:53;;;;;;;6.70;4.37;;;-4.00;99.90;;;;;;5124105;28;20043;-60
2022/12/13 01:10:30;;;;;;;9.47;5.27;;;-4.00;99.90;;;;;;5133400;29;20045;-59
2022/12/13 01:13:12;;;;;;;8.27;4.47;;;-4.00;99.90;;;;;;5130813;28;20307;-60
2022/12/13 01:15:49;;;;;;;12.37;4.67;;;-4.00;99.90;;;;;;5137676;28;20054;-60
2022/12/13 01:18:28;;;;;;;4.80;4.20;;;-4.00;99.90;;;;;;5135724;28;20323;-60
2022/12/13 01:21:15;;;;;;;9.80;4.30;;;-4.20;99.90;;;;;;5120471;28;20038;-61
2022/12/13 01:24:00;;;;;;;8.10;5.30;;;-4.20;99.90;;;;;;5136497;28;20026;-59
2022/12/13 01:26:42;;;;;;;6.10;4.27;;;-4.30;99.90;;;;;;5121000;28;20042;-60
2022/12/13 01:29:19;;;;;;;6.67;4.20;;;-4.30;99.90;;;;;;5105395;28;20039;-60
2022/12/13 01:31:50;;;;;;;8.53;3.87;;;-4.30;99.90;;;;;;5103727;28;20046;-60
2022/12/13 01:34:26;;;;;;;7.07;3.37;;;-4.30;99.90;;;;;;5118055;28;20078;-61
2022/12/13 01:37:01;;;;;;;6.83;4.23;;;-4.30;99.90;;;;;;5119551;28;20441;-59
2022/12/13 01:39:36;;;;;;;10.70;3.77;;;-4.20;99.90;;;;;;5116757;29;20552;-61
2022/12/13 01:42:19;;;;;;;4.90;3.40;;;-4.30;99.90;;;;;;5117467;28;20039;-60
2022/12/13 01:44:54;;;;;;;6.33;4.87;;;-4.40;99.90;;;;;;5136022;28;20045;-59
2022/12/13 01:47:34;;;;;;;4.33;3.07;;;-4.40;99.90;;;;;;5135977;28;20452;-59
2022/12/13 01:50:14;;;;;;;4.37;2.47;;;-4.50;99.90;;;;;;5151851;28;20046;-61
2022/12/13 01:52:50;;;;;;;5.87;2.57;;;-4.50;99.90;;;;;;5136246;28;20055;-60
2022/12/13 01:55:28;;;;;;;5.40;3.37;;;-4.50;99.90;;;;;;5134203;28;20034;-61
2022/12/13 01:58:04;;;;;;;5.73;3.40;;;-4.50;99.90;;;;;;5119663;28;20230;-59
2022/12/13 02:00:41;;;;;;;4.10;2.07;;;-4.50;99.90;;;;;;5135928;28;20046;-59
2022/12/13 02:03:23;;;;;;;3.43;2.37;;;-4.50;99.90;;;;;;5143983;28;20041;-60
2022/12/13 02:06:11;;;;;;;6.03;2.53;;;-4.50;99.90;;;;;;5144849;28;20042;-60
2022/12/13 02:08:48;;;;;;;8.40;2.77;;;-4.50;99.90;;;;;;5144386;28;20052;-60
2022/12/13 02:11:26;;;;;;;3.57;2.93;;;-4.50;99.90;;;;;;5126187;28;20049;-59
2022/12/13 02:14:01;;;;;;;9.37;3.07;;;-4.50;99.90;;;;;;5156849;28;20041;-59
2022/12/13 02:16:47;;;;;;;4.10;3.37;;;-4.50;99.90;;;;;;5150426;28;20343;-59
2022/12/13 02:20:05;;;;;;;5.17;3.93;;;-4.60;99.90;;;;;;5164062;28;20038;-60
2022/12/13 02:23:32;;;;;;;5.03;2.87;;;-4.60;99.90;;;;;;5176737;28;20027;-59
2022/12/13 02:26:51;;;;;;;5.83;2.90;;;-4.60;99.90;;;;;;5162596;28;20210;-59
2022/12/13 02:30:12;;;;;;;4.13;2.97;;;-4.70;99.90;;;;;;5179759;28;20052;-60
2022/12/13 02:33:01;;;;;;;2.83;2.57;;;-4.60;99.90;;;;;;5163984;28;20046;-62
2022/12/13 02:35:57;;;;;;;8.20;3.03;;;-4.60;99.90;;;;;;5162166;28;20038;-61
2022/12/13 02:38:46;;;;;;;3.17;2.87;;;-4.50;99.90;;;;;;5162746;28;20337;-59
2022/12/13 02:41:35;;;;;;;5.00;3.30;;;-4.50;99.90;;;;;;5179073;28;20032;-59
2022/12/13 02:44:18;;;;;;;17.47;2.40;;;-4.40;99.90;;;;;;5158976;28;20048;-59
2022/12/13 02:47:08;;;;;;;5.05;3.33;;;-4.50;99.90;;;;;;5159577;28;20030;-59
2022/12/13 02:49:49;;;;;;;3.83;3.00;;;-4.40;99.90;;;;;;5156533;28;20030;-59
2022/12/13 02:52:27;;;;;;;3.33;2.73;;;-4.40;99.90;;;;;;5158789;28;20045;-61
2022/12/13 02:54:58;;;;;;;2.07;1.87;;;-4.40;99.90;;;;;;5177702;28;20344;-59
2022/12/13 02:57:37;;;;;;;4.80;3.30;;;-4.40;99.90;;;;;;5142510;28;20038;-60
2022/12/13 03:00:17;;;;;;;4.93;3.37;;;-4.40;99.90;;;;;;5145833;28;20219;-59
2022/12/13 03:03:32;;;;;;;3.57;2.63;;;-4.30;99.90;;;;;;5152458;28;20058;-61
2022/12/13 03:06:29;;;;;;;2.90;2.27;;;-4.30;99.90;;;;;;5132212;28;20164;-61
2022/12/13 03:09:09;;;;;;;4.73;2.57;;;-4.30;99.90;;;;;;5141869;28;20154;-60
2022/12/13 03:15:11;;;;;;;9.10;2.10;;;-4.40;99.90;;;;;;5160536;28;20034;-60
2022/12/13 03:17:55;;;;;;;3.33;2.90;;;-4.40;99.90;;;;;;5176034;28;20036;-60
2022/12/13 03:20:35;;;;;;;6.47;4.10;;;-4.50;99.90;;;;;;5174643;28;20038;-60
2022/12/13 03:23:17;;;;;;;5.47;3.53;;;-4.50;99.90;;;;;;5143866;28;20034;-60
2022/12/13 03:26:00;;;;;;;3.37;2.23;;;-4.60;99.90;;;;;;5154995;28;20049;-61
2022/12/13 03:28:34;;;;;;;3.90;2.57;;;-4.60;99.90;;;;;;5168470;28;20026;-60
2022/12/13 03:31:07;;;;;;;4.20;2.63;;;-4.60;99.90;;;;;;5159238;28;20127;-63
2022/12/13 03:33:39;;;;;;;4.55;3.10;;;-4.60;99.90;;;;;;5154527;28;20044;-60
2022/12/13 03:36:14;;;;;;;5.13;3.13;;;-4.60;99.90;;;;;;5156222;28;20026;-60
2022/12/13 03:38:51;;;;;;;15.93;4.73;;;-4.50;99.90;;;;;;5137964;28;20412;-60
2022/12/13 03:41:30;;;;;;;6.60;3.80;;;-4.50;99.90;;;;;;5138666;28;20042;-59
2022/12/13 03:44:08;;;;;;;7.03;3.40;;;-4.60;99.90;;;;;;5171415;28;20145;-60
2022/12/13 03:46:40;;;;;;;5.17;3.13;;;-4.70;99.90;;;;;;5141902;28;20046;-62
2022/12/13 03:49:16;;;;;;;5.60;2.40;;;-4.80;99.90;;;;;;5158857;28;20591;-61
2022/12/13 03:51:50;;;;;;;4.63;2.47;;;-4.90;99.90;;;;;;5173915;28;20043;-60
2022/12/13 03:54:29;;;;;;;3.70;2.67;;;-4.90;99.90;;;;;;5132307;28;20032;-60
2022/12/13 03:57:08;;;;;;;2.17;1.93;;;-4.90;99.90;;;;;;5140965;28;20039;-61
2022/12/13 03:59:42;;;;;;;3.60;2.77;;;-4.90;99.90;;;;;;5158246;28;20037;-60
2022/12/13 04:02:16;;;;;;;4.77;2.43;;;-4.90;99.90;;;;;;5157900;28;20046;-60
2022/12/13 04:04:47;;;;;;;;;;;-5.00;99.90;;;;;;5164114;28;20046;-62
2022/12/13 04:07:21;;;;;;;2.33;2.10;;;-5.10;99.90;;;;;;5138030;28;19914;-61
2022/12/13 04:09:55;;;;;;;;;;;-5.20;99.90;;;;;;5146251;28;20034;-60
2022/12/13 04:15:27;;;;;;;2.77;2.50;;;-5.20;99.90;;;;;;5159455;28;20042;-60
2022/12/13 04:17:58;;;;;;;5.67;3.93;;;-5.20;99.90;;;;;;5141780;28;20041;-60
2022/12/13 04:20:31;;;;;;;6.20;3.13;;;-5.20;99.90;;;;;;5157523;28;20050;-61
2022/12/13 04:23:03;;;;;;;3.73;3.30;;;-5.30;99.90;;;;;;5149037;28;20045;-61
2022/12/13 04:25:41;;;;;;;4.07;3.40;;;-5.30;99.90;;;;;;5121326;28;20041;-60
2022/12/13 04:28:25;;;;;;;5.27;3.57;;;-5.20;99.90;;;;;;5139301;28;20038;-61
2022/12/13 04:30:57;;;;;;;6.68;3.53;;;-5.20;99.90;;;;;;5150811;28;20064;-61
2022/12/13 04:33:31;;;;;;;8.30;4.00;;;-5.30;99.90;;;;;;5141119;28;20041;-62
2022/12/13 04:36:05;;;;;;;7.87;3.90;;;-5.40;99.90;;;;;;5137984;28;20030;-61
2022/12/13 04:38:36;;;;;;;3.60;2.60;;;-5.60;99.90;;;;;;5153397;28;20057;-61
2022/12/13 04:41:17;;;;;;;4.40;3.20;;;-5.70;99.90;;;;;;5137242;28;20034;-61
2022/12/13 04:43:56;;;;;;;4.73;2.70;;;-5.70;99.90;;;;;;5154466;28;20050;-62
2022/12/13 04:46:29;;;;;;;11.90;3.63;;;-5.70;99.90;;;;;;5158503;28;20031;-61
2022/12/13 04:49:03;;;;;;;;;;;-5.80;99.90;;;;;;5153693;28;20117;-60
2022/12/13 04:51:37;;;;;;;3.70;3.13;;;-5.90;99.90;;;;;;5105333;28;19910;-60
2022/12/13 04:54:09;;;;;;;5.67;3.27;;;-6.00;99.90;;;;;;5156752;28;20027;-60
2022/12/13 04:56:43;;;;;;;5.13;2.77;;;-5.90;99.90;;;;;;5138935;28;20051;-60
2022/12/13 04:59:18;;;;;;;3.80;3.40;;;-5.90;99.90;;;;;;5152221;28;20038;-61
2022/12/13 05:01:53;;;;;;;4.47;3.13;;;-5.90;99.90;;;;;;5146447;28;20050;-61
2022/12/13 05:04:27;;;;;;;3.13;2.87;;;-6.00;99.90;;;;;;5111199;28;20042;-60
2022/12/13 05:07:04;;;;;;;4.43;2.77;;;-6.00;99.90;;;;;;5137805;28;20035;-60
2022/12/13 05:09:38;;;;;;;5.63;3.17;;;-6.00;99.90;;;;;;5154812;28;20045;-60
2022/12/13 05:12:10;;;;;;;5.50;3.47;;;-6.00;99.90;;;;;;5127085;28;20045;-60
2022/12/13 05:14:41;;;;;;;4.17;3.63;;;-6.10;99.90;;;;;;5136881;28;20039;-61
2022/12/13 05:17:17;;;;;;;6.47;4.47;;;-6.10;99.90;;;;;;5141362;28;20231;-60
2022/12/13 05:19:49;;;;;;;6.07;3.33;;;-6.00;99.90;;;;;;5172926;28;20041;-60
2022/12/13 05:22:20;;;;;;;8.73;4.23;;;-5.90;99.90;;;;;;5156661;28;20052;-60
2022/12/13 05:24:54;;;;;;;6.87;3.60;;;-5.80;99.90;;;;;;5156776;28;20023;-62
2022/12/13 05:27:29;;;;;;;7.27;4.00;;;-5.90;99.90;;;;;;5150342;28;20061;-60
2022/12/13 05:30:01;;;;;;;4.97;3.47;;;-5.90;99.90;;;;;;5142679;28;20050;-60
2022/12/13 05:32:44;;;;;;;14.73;4.17;;;-5.80;99.90;;;;;;5141572;28;20038;-62
2022/12/13 05:35:20;;;;;;;8.53;4.37;;;-5.90;99.90;;;;;;5157920;28;20053;-61
2022/12/13 05:37:55;;;;;;;5.17;3.23;;;-6.00;99.90;;;;;;5172023;28;20332;-60
2022/12/13 05:40:29;;;;;;;10.20;4.57;;;-6.00;99.90;;;;;;5172657;28;20038;-66
2022/12/13 05:43:03;;;;;;;;;;;-6.10;99.90;;;;;;5122143;28;20061;-60
2022/12/13 05:45:36;;;;;;;17.27;4.95;;;-6.10;99.90;;;;;;5141071;28;19914;-61
2022/12/13 05:48:09;;;;;;;4.03;3.03;;;-6.10;99.90;;;;;;5157746;28;20046;-60
2022/12/13 05:50:44;;;;;;;4.20;2.88;;;-6.10;99.90;;;;;;5135908;28;20053;-60
2022/12/13 05:53:23;;;;;;;3.97;3.57;;;-6.10;99.90;;;;;;5140252;28;20057;-60
2022/12/13 05:55:59;;;;;;;17.67;3.30;;;-6.20;99.90;;;;;;5152991;28;20303;-61
2022/12/13 05:58:30;;;;;;;4.40;2.40;;;-6.30;99.90;;;;;;5154807;28;20042;-60
2022/12/13 06:01:13;;;;;;;2.80;2.60;;;-6.40;99.90;;;;;;5135441;28;20034;-60
2022/12/13 06:03:45;;;;;;;6.63;3.07;;;-6.40;99.90;;;;;;5136368;28;20539;-60
2022/12/13 06:06:24;;;;;;;4.73;3.47;;;-6.50;99.90;;;;;;5160182;28;20059;-60
2022/12/13 06:09:04;;;;;;;6.87;3.27;;;-6.50;99.90;;;;;;5151299;28;20053;-61
2022/12/13 06:11:38;;;;;;;3.50;2.63;;;-6.50;99.90;;;;;;5132738;28;20046;-60
2022/12/13 06:14:12;;;;;;;;;;;-6.50;99.90;;;;;;5166794;28;20038;-61
2022/12/13 06:16:47;;;;;;;5.95;3.25;;;-6.50;99.90;;;;;;5132693;28;19916;-60
2022/12/13 06:19:29;;;;;;;3.03;2.77;;;-6.60;99.90;;;;;;5148579;28;20339;-61
2022/12/13 06:22:02;;;;;;;4.90;2.40;;;-6.60;99.90;;;;;;5157513;28;20248;-60
2022/12/13 06:24:37;;;;;;;5.83;2.80;;;-6.60;99.90;;;;;;5152173;28;20102;-61
2022/12/13 06:27:09;;;;;;;3.23;2.97;;;-6.60;99.90;;;;;;5152153;28;20047;-61
2022/12/13 06:29:46;;;;;;;7.03;3.07;;;-6.60;99.90;;;;;;5135535;28;20389;-61
2022/12/13 06:32:22;;;;;;;3.37;2.70;;;-6.70;99.90;;;;;;5116213;28;20052;-61
2022/12/13 06:34:56;;;;;;;9.47;3.30;;;-6.80;99.90;;;;;;5119601;28;20049;-61
2022/12/13 06:37:35;;;;;;;3.25;2.95;;;-6.90;99.90;;;;;;5135365;28;20047;-60
2022/12/13 06:40:07;;;;;;;8.93;4.53;;;-6.90;99.90;;;;;;5157118;28;20035;-61
2022/12/13 06:42:47;;;;;;;11.63;3.97;;;-6.90;99.90;;;;;;5150920;28;20039;-61
2022/12/13 06:45:26;;;;;;;7.37;4.27;;;-6.90;99.90;;;;;;5132607;28;20047;-62
2022/12/13 06:48:01;;;;;;;7.07;4.30;;;-6.80;99.90;;;;;;5152399;28;20037;-61
2022/12/13 06:50:38;;;;;;;11.47;5.23;;;-6.70;99.90;;;;;;5153828;28;20038;-60
2022/12/13 06:53:14;;;;;;;6.17;3.77;;;-6.70;99.90;;;;;;5152345;28;20046;-60
2022/12/13 06:55:49;;;;;;;7.70;4.53;;;-6.80;99.90;;;;;;5161363;28;20344;-61
2022/12/13 06:58:25;;;;;;;7.63;3.57;;;-6.80;99.90;;;;;;5156419;28;20026;-61
2022/12/13 07:01:19;;;;;;;5.80;3.33;;;-6.90;99.90;;;;;;5139106;28;20038;-60
2022/12/13 07:04:04;;;;;;;5.10;4.03;;;-6.70;99.90;;;;;;5152663;28;20035;-60
2022/12/13 07:06:41;;;;;;;6.93;4.80;;;-6.50;99.90;;;;;;5145998;28;20058;-61
2022/12/13 07:09:14;;;;;;;3.93;3.50;;;-6.30;99.90;;;;;;5155681;28;20231;-60
2022/12/13 07:11:47;;;;;;;6.73;4.20;;;-6.20;99.90;;;;;;5155965;28;20057;-60
2022/12/13 07:14:19;;;;;;;12.93;5.83;;;-6.00;99.90;;;;;;5144697;28;20050;-59
2022/12/13 07:16:53;;;;;;;10.53;6.67;;;-5.80;99.90;;;;;;5168282;28;20030;-60
2022/12/13 07:19:29;;;;;;;15.82;7.28;;;-5.60;99.90;;;;;;5122115;28;20045;-59
2022/12/13 07:22:06;;;;;;;8.03;5.03;;;-5.40;99.90;;;;;;5138797;28;20584;-61
2022/12/13 07:24:42;;;;;;;9.97;5.00;;;-5.20;99.90;;;;;;5138085;28;20026;-59
2022/12/13 07:27:16;;;;;;;8.73;6.00;;;-5.00;99.90;;;;;;5120882;28;20052;-59
2022/12/13 07:29:53;;;;;;;;;;;-4.90;99.90;;;;;;5136481;28;20315;-59
2022/12/13 07:32:29;;;;;;;10.33;4.47;;;-4.70;99.90;;;;;;5156256;28;19909;-59
2022/12/13 07:35:01;;;;;;;12.00;7.10;;;-4.60;99.90;;;;;;5127275;28;20058;-60
2022/12/13 07:37:33;;;;;;;14.13;9.00;;;-4.50;99.90;;;;;;5156979;28;20044;-60
2022/12/13 07:40:09;;;;;;;14.73;8.27;;;-4.40;99.90;;;;;;5156453;28;20038;-59
2022/12/13 07:42:59;;;;;;;29.43;14.33;;;-4.30;99.90;;;;;;5157398;28;20050;-58
2022/12/13 07:45:38;;;;;;;15.27;10.70;;;-4.40;99.90;;;;;;5126126;28;20048;-58
2022/12/13 07:48:13;;;;;;;20.90;9.27;;;-4.30;99.90;;;;;;5158783;28;20046;-59
2022/12/13 07:50:48;;;;;;;16.33;9.50;;;-4.30;99.90;;;;;;5165775;28;20025;-58
2022/12/13 07:53:24;;;;;;;25.17;10.30;;;-4.40;99.90;;;;;;5147973;28;20053;-58
2022/12/13 07:55:56;;;;;;;17.87;9.27;;;-4.40;99.90;;;;;;5138960;28;20204;-57
2022/12/13 07:58:32;;;;;;;20.03;10.00;;;-4.40;99.90;;;;;;5129953;28;20046;-58
2022/12/13 08:01:10;;;;;;;14.50;8.37;;;-4.40;99.90;;;;;;5150935;28;20345;-59
2022/12/13 08:03:42;;;;;;;11.77;7.23;;;-4.40;99.90;;;;;;5141175;28;20054;-58
2022/12/13 08:06:13;;;;;;;16.67;8.23;;;-4.30;99.90;;;;;;5131987;28;20046;-58
2022/12/13 08:08:45;;;;;;;16.93;9.53;;;-4.30;99.90;;;;;;5157320;28;20048;-59
2022/12/13 08:11:24;;;;;;;16.80;8.50;;;-4.20;99.90;;;;;;5165347;28;20413;-59
2022/12/13 08:13:57;;;;;;;18.97;9.63;;;-4.10;99.90;;;;;;5122307;28;20068;-59
2022/12/13 08:16:30;;;;;;;16.07;9.07;;;-4.00;99.90;;;;;;5153259;28;20050;-59
2022/12/13 08:19:03;;;;;;;16.13;7.93;;;-3.80;99.90;;;;;;5142771;28;20048;-59
2022/12/13 08:21:40;;;;;;;11.93;6.67;;;-3.90;99.90;;;;;;5145571;28;20045;-59
2022/12/13 08:24:17;;;;;;;23.13;8.73;;;-3.90;99.90;;;;;;5155472;28;20048;-60
2022/12/13 08:26:51;;;;;;;17.80;7.97;;;-3.90;99.90;;;;;;5139447;28;20327;-60
2022/12/13 08:29:26;;;;;;;10.68;7.63;;;-3.60;99.90;;;;;;5143640;28;20035;-59
2022/12/13 08:32:02;;;;;;;10.47;6.83;;;-3.30;99.90;;;;;;5151856;28;20034;-59
2022/12/13 08:34:47;;;;;;;14.37;8.10;;;-3.10;99.90;;;;;;5117685;28;20046;-60
2022/12/13 08:37:18;;;;;;;12.67;6.93;;;-2.80;99.90;;;;;;5142542;28;20311;-61
2022/12/13 08:39:56;;;;;;;11.03;7.73;;;-2.50;99.90;;;;;;5130998;28;20038;-61
2022/12/13 08:42:35;;;;;;;11.00;7.07;;;-2.20;99.90;;;;;;5135559;28;20034;-60
2022/12/13 08:45:12;;;;;;;10.20;7.17;;;-1.90;99.90;;;;;;5147315;28;20027;-59
2022/12/13 08:47:48;;;;;;;11.32;5.78;;;-1.70;99.90;;;;;;5167374;28;20343;-60
2022/12/13 08:50:22;;;;;;;16.13;6.63;;;-1.40;99.90;;;;;;5149320;28;20046;-60
2022/12/13 08:53:04;;;;;;;13.18;6.22;;;-1.40;99.90;;;;;;5152535;28;20204;-60
2022/12/13 08:55:36;;;;;;;12.77;7.47;;;-1.30;99.90;;;;;;5156577;28;20046;-61
2022/12/13 08:58:13;;;;;;;15.00;7.37;;;-1.40;99.90;;;;;;5139545;28;20060;-61
2022/12/13 09:00:47;;;;;;;11.13;7.23;;;-1.50;99.90;;;;;;5156851;28;20214;-62
2022/12/13 09:03:23;;;;;;;12.70;7.40;;;-1.20;99.90;;;;;;5148623;28;20038;-62
2022/12/13 09:06:07;;;;;;;13.13;6.57;;;-0.80;99.90;;;;;;5153287;28;20051;-61
2022/12/13 09:08:43;;;;;;;10.07;6.20;;;-0.70;99.90;;;;;;5149719;28;20053;-63
2022/12/13 09:11:22;;;;;;;12.25;5.97;;;-0.40;99.90;;;;;;5167790;28;20288;-62
2022/12/13 09:13:57;;;;;;;10.73;5.70;;;-0.30;99.90;;;;;;5137430;28;20058;-62
2022/12/13 09:16:35;;;;;;;9.02;5.35;;;-0.20;99.90;;;;;;5148572;28;20505;-62
2022/12/13 09:19:11;;;;;;;13.50;8.05;;;-0.20;99.90;;;;;;5103758;28;20053;-62
2022/12/13 09:21:50;;;;;;;15.13;5.80;;;0.00;99.90;;;;;;5157863;28;20029;-62
2022/12/13 09:24:25;;;;;;;9.70;5.55;;;0.00;99.90;;;;;;5150485;28;20031;-63
2022/12/13 09:26:59;;;;;;;;;;;0.10;99.90;;;;;;5152680;28;20049;-63
2022/12/13 09:29:41;;;;;;;10.63;5.38;;;0.20;99.90;;;;;;5151035;28;20103;-64
2022/12/13 09:32:17;;;;;;;8.88;5.45;;;0.20;99.90;;;;;;5154468;28;20051;-63
2022/12/13 09:34:52;;;;;;;7.78;4.70;;;0.30;99.90;;;;;;5140803;28;20049;-63
2022/12/13 09:37:28;;;;;;;9.88;5.28;;;0.40;99.90;;;;;;5148314;28;20058;-62
2022/12/13 09:40:05;;;;;;;12.57;4.82;;;0.50;99.90;;;;;;5152466;28;20327;-63
2022/12/13 09:42:43;;;;;;;7.60;4.93;;;0.70;99.90;;;;;;5123559;28;20066;-63
2022/12/13 09:45:18;;;;;;;9.05;4.47;;;0.80;99.90;;;;;;5167679;28;20037;-62
2022/12/13 09:47:50;;;;;;;;;;;1.00;99.90;;;;;;5151781;28;20336;-63
2022/12/13 09:50:42;;;;;;;7.28;3.38;;;1.50;99.90;;;;;;5165560;28;19913;-63
2022/12/13 09:53:19;;;;;;;10.80;4.75;;;1.50;99.90;;;;;;5156838;28;20489;-62
2022/12/13 09:55:55;;;;;;;6.85;4.55;;;2.00;99.90;;;;;;5154335;28;20064;-63
2022/12/13 09:58:30;;;;;;;6.85;4.78;;;2.40;99.90;;;;;;5168258;28;20224;-63
2022/12/13 10:01:07;;;;;;;7.38;4.80;;;3.00;99.90;;;;;;5161542;28;20030;-63
2022/12/13 10:03:46;;;;;;;10.85;4.15;;;3.10;99.90;;;;;;5152100;28;20054;-62
2022/12/13 10:06:22;;;;;;;8.05;3.30;;;2.60;99.90;;;;;;5125961;28;20293;-62
2022/12/13 10:09:02;;;;;;;6.57;4.63;;;2.80;99.90;;;;;;5139877;28;20048;-62
2022/12/13 10:11:52;;;;;;;7.13;3.80;;;2.70;99.90;;;;;;5139160;28;20038;-63
2022/12/13 10:14:47;;;;;;;3.90;3.13;;;3.30;99.90;;;;;;5132050;28;20056;-62
2022/12/13 10:17:23;;;;;;;5.40;3.65;;;3.90;99.90;;;;;;5137957;28;20042;-62
2022/12/13 10:19:59;;;;;;;5.85;4.25;;;3.70;99.90;;;;;;5138937;28;20034;-63
2022/12/13 10:22:30;;;;;;;4.88;3.10;;;3.80;99.90;;;;;;5143385;28;20338;-63
2022/12/13 10:25:13;;;;;;;7.85;3.55;;;4.10;99.90;;;;;;5136413;28;20069;-63
2022/12/13 10:27:46;;;;;;;7.47;3.95;;;4.70;99.90;;;;;;5159117;28;20041;-62
2022/12/13 10:30:23;;;;;;;6.35;3.70;;;4.10;99.90;;;;;;5136314;28;20034;-62
2022/12/13 10:33:04;;;;;;;7.03;3.90;;;4.80;99.90;;;;;;5169968;28;20030;-63
2022/12/13 10:35:43;;;;;;;7.78;4.18;;;5.20;99.90;;;;;;5141961;28;20046;-62
2022/12/13 10:38:17;;;;;;;6.28;3.60;;;4.70;99.90;;;;;;5176199;28;20038;-62
2022/12/13 10:40:56;;;;;;;6.13;3.55;;;4.40;99.90;;;;;;5157904;28;20030;-62
2022/12/13 10:43:34;;;;;;;7.25;3.50;;;4.90;99.90;;;;;;5132601;28;20039;-63
2022/12/13 10:46:21;;;;;;;8.15;3.40;;;5.40;99.90;;;;;;5155952;28;20080;-63
2022/12/13 10:48:59;;;;;;;4.88;2.75;;;6.00;99.90;;;;;;5144199;28;20053;-62
2022/12/13 10:51:38;;;;;;;5.43;2.83;;;6.30;99.90;;;;;;5154177;28;20043;-63
2022/12/13 10:54:28;;;;;;;5.38;3.30;;;6.10;99.90;;;;;;5157415;28;20258;-62
2022/12/13 10:57:05;;;;;;;3.72;2.97;;;5.50;99.90;;;;;;5164505;28;20050;-62
2022/12/13 10:59:43;;;;;;;6.65;4.53;;;6.00;99.90;;;;;;5107598;28;20042;-62
2022/12/13 11:02:41;;;;;;;5.85;3.10;;;6.50;99.90;;;;;;5165679;28;20048;-62
2022/12/13 11:05:26;;;;;;;8.02;3.53;;;7.30;99.90;;;;;;5137456;28;20055;-62
2022/12/13 11:08:25;;;;;;;6.40;3.50;;;7.90;99.90;;;;;;5146396;28;20047;-62
2022/12/13 11:11:01;;;;;;;10.43;3.53;;;8.20;99.90;;;;;;5174824;28;20038;-62
2022/12/13 11:14:14;;;;;;;5.68;3.35;;;8.80;99.90;;;;;;5157920;28;20438;-62
2022/12/13 11:16:58;;;;;;;11.70;3.67;;;9.00;99.90;;;;;;5099185;28;20053;-62
2022/12/13 11:19:40;;;;;;;6.17;3.97;;;9.10;99.90;;;;;;5130416;28;20042;-62
2022/12/13 11:22:31;;;;;;;5.82;3.92;;;9.30;99.90;;;;;;5171152;28;20056;-63
2022/12/13 11:25:16;;;;;;;5.68;3.70;;;9.20;99.90;;;;;;5143020;28;20050;-62
2022/12/13 11:28:05;;;;;;;5.97;3.70;;;9.50;99.90;;;;;;5126089;28;20042;-62
2022/12/13 11:31:07;;;;;;;7.53;3.85;;;9.90;99.90;;;;;;5157921;28;20227;-62
2022/12/13 11:34:03;;;;;;;4.80;3.35;;;9.50;99.90;;;;;;5159262;28;20045;-63
2022/12/13 11:36:55;;;;;;;5.93;3.45;;;8.50;99.90;;;;;;5156274;28;20040;-61
2022/12/13 11:39:49;;;;;;;4.15;2.67;;;9.00;99.90;;;;;;5139136;28;20045;-62
2022/12/13 11:42:47;;;;;;;4.97;3.30;;;8.80;99.90;;;;;;5136920;28;20255;-62
2022/12/13 11:45:27;;;;;;;7.15;3.15;;;7.80;99.90;;;;;;5154057;28;20046;-62
2022/12/13 11:48:30;;;;;;;3.65;2.67;;;7.00;99.90;;;;;;5172533;28;20052;-61
2022/12/13 11:51:07;;;;;;;4.20;3.17;;;7.50;99.90;;;;;;5112892;28;20060;-62
2022/12/13 11:54:16;;;;;;;4.78;2.30;;;8.20;99.90;;;;;;5156319;28;20226;-62
2022/12/13 11:56:50;;;;;;;5.45;3.05;;;8.10;99.90;;;;;;5135641;28;20053;-63
2022/12/13 11:59:51;;;;;;;7.10;3.20;;;7.90;99.90;;;;;;5137160;28;20039;-62
2022/12/13 12:02:34;;;;;;;4.65;3.08;;;7.40;99.90;;;;;;5149688;28;20223;-62
2022/12/13 12:05:34;;;;;;;4.43;2.92;;;7.00;99.90;;;;;;5130994;28;20058;-61
2022/12/13 12:08:38;;;;;;;7.00;3.35;;;6.90;99.90;;;;;;5143189;28;20328;-61
2022/12/13 12:11:46;;;;;;;5.53;3.10;;;6.80;99.90;;;;;;5152547;28;20037;-61
2022/12/13 12:14:40;;;;;;;4.18;3.33;;;7.50;99.90;;;;;;5145038;28;20339;-61
2022/12/13 12:17:18;;;;;;;6.95;3.85;;;7.60;99.90;;;;;;5159790;28;20050;-61
2022/12/13 12:19:56;;;;;;;8.90;4.22;;;7.20;99.90;;;;;;5151162;28;20045;-62
2022/12/13 12:22:56;;;;;;;8.07;3.65;;;6.80;99.90;;;;;;5137351;28;20042;-62
2022/12/13 12:26:01;;;;;;;4.85;3.17;;;7.00;99.90;;;;;;5173108;28;20040;-62
2022/12/13 12:29:26;;;;;;;3.78;3.03;;;6.70;99.90;;;;;;5136617;28;20111;-62
2022/12/13 12:32:11;;;;;;;4.30;2.47;;;6.40;99.90;;;;;;5156184;28;20041;-62
2022/12/13 12:35:26;;;;;;;3.95;2.33;;;6.30;99.90;;;;;;5166306;28;20042;-62
2022/12/13 12:38:13;;;;;;;3.70;2.65;;;6.00;99.90;;;;;;5149951;28;20063;-62
2022/12/13 12:41:03;;;;;;;5.65;2.65;;;6.80;99.90;;;;;;5172861;28;20230;-62
2022/12/13 12:43:45;;;;;;;5.30;2.95;;;7.50;99.90;;;;;;5171488;28;20042;-61
2022/12/13 12:46:54;;;;;;;5.45;3.47;;;7.80;99.90;;;;;;5167444;28;20057;-61
2022/12/13 12:50:11;;;;;;;6.32;3.40;;;7.20;99.90;;;;;;5108141;28;20040;-62
2022/12/13 12:53:20;;;;;;;4.60;2.97;;;7.50;99.90;;;;;;5164583;28;20126;-62
2022/12/13 12:56:42;;;;;;;5.65;3.25;;;7.40;99.90;;;;;;5152612;28;20040;-61
2022/12/13 12:59:22;;;;;;;8.13;2.88;;;7.50;99.90;;;;;;5164422;28;20043;-62
2022/12/13 13:02:25;;;;;;;4.10;2.55;;;7.20;99.90;;;;;;5143323;28;20077;-61
2022/12/13 13:05:12;;;;;;;6.78;3.08;;;7.40;99.90;;;;;;5129573;28;20335;-62
2022/12/13 13:08:04;;;;;;;6.65;3.33;;;7.50;99.90;;;;;;5166126;28;20061;-62
2022/12/13 13:10:40;;;;;;;5.43;3.38;;;6.50;99.90;;;;;;5155480;28;20042;-62
2022/12/13 13:13:59;;;;;;;6.65;3.60;;;5.50;99.90;;;;;;5153841;28;20026;-62
2022/12/13 13:16:43;;;;;;;4.03;2.92;;;5.30;99.90;;;;;;5158880;28;20045;-61
2022/12/13 13:19:18;;;;;;;7.88;2.80;;;5.10;99.90;;;;;;5155686;28;20358;-61
2022/12/13 13:21:56;;;;;;;;;;;4.30;99.90;;;;;;5168559;28;20044;-61
2022/12/13 13:24:43;;;;;;;4.88;3.15;;;4.30;99.90;;;;;;5171343;28;19921;-62
2022/12/13 13:27:46;;;;;;;10.48;3.38;;;4.50;99.90;;;;;;5138881;28;20038;-62
2022/12/13 13:30:30;;;;;;;8.55;3.17;;;5.00;99.90;;;;;;5154309;28;20046;-61
2022/12/13 13:33:07;;;;;;;5.60;3.35;;;4.70;99.90;;;;;;5149387;28;20331;-62
2022/12/13 13:35:46;;;;;;;6.38;3.38;;;3.90;99.90;;;;;;5134970;28;20050;-60
2022/12/13 13:38:49;;;;;;;7.53;3.97;;;3.70;99.90;;;;;;5135552;28;20327;-61
2022/12/13 13:41:58;;;;;;;6.03;3.35;;;3.40;99.90;;;;;;5161189;28;20042;-61
2022/12/13 13:44:55;;;;;;;3.72;2.80;;;2.80;99.90;;;;;;5161363;28;20043;-61
2022/12/13 13:47:37;;;;;;;5.82;3.60;;;1.90;99.90;;;;;;5139240;28;20042;-61
2022/12/13 13:50:11;;;;;;;3.83;2.95;;;1.50;99.90;;;;;;5138507;28;20342;-62
2022/12/13 13:53:26;;;;;;;4.65;3.33;;;1.20;99.90;;;;;;5169558;28;20041;-61
2022/12/13 13:56:41;;;;;;;3.70;2.73;;;1.00;99.90;;;;;;5153131;28;20243;-61
2022/12/13 14:00:02;;;;;;;6.78;3.88;;;0.60;99.90;;;;;;5169527;28;20256;-62
2022/12/13 14:03:22;;;;;;;5.00;2.42;;;0.60;99.90;;;;;;5166843;28;20045;-62
2022/12/13 14:06:04;;;;;;;6.13;3.60;;;0.40;99.90;;;;;;5121558;28;20480;-62
2022/12/13 14:08:47;;;;;;;4.25;2.92;;;0.30;99.90;;;;;;5162642;28;20039;-62
2022/12/13 14:11:47;;;;;;;8.20;3.72;;;0.30;99.90;;;;;;5153649;28;20490;-61